createdAt,value
2019-01-23T00:00:49.821Z,0.80
2019-01-23T00:03:21.134Z,0.80
2019-01-23T00:05:52.729Z,0.80
2019-01-23T00:08:24.237Z,0.80
2019-01-23T00:11:00.510Z,0.90
2019-01-23T00:13:32.015Z,0.90
2019-01-23T00:16:03.476Z,0.90
2019-01-23T00:18:36.191Z,0.80
2019-01-23T00:21:08.657Z,0.80
2019-01-23T00:23:41.859Z,0.80
2019-01-23T00:26:13.825Z,0.80
2019-01-23T00:28:45.857Z,0.80
2019-01-23T00:31:17.709Z,0.80
2019-01-23T00:33:49.615Z,0.80
2019-01-23T00:36:21.380Z,0.80
2019-01-23T00:38:53.229Z,0.80
2019-01-23T00:41:25.358Z,0.80
2019-01-23T00:43:56.714Z,0.80
2019-01-23T00:46:29.612Z,0.80
2019-01-23T00:49:01.593Z,0.80
2019-01-23T00:51:33.362Z,0.80
2019-01-23T00:54:05.038Z,0.90
2019-01-23T00:56:36.633Z,0.80
2019-01-23T00:59:08.214Z,0.80
2019-01-23T01:01:39.895Z,0.80
2019-01-23T01:04:11.558Z,0.80
2019-01-23T01:06:43.467Z,0.80
2019-01-23T01:09:15.148Z,0.80
2019-01-23T01:11:48.346Z,0.80
2019-01-23T01:14:20.018Z,0.80
2019-01-23T01:16:51.718Z,0.80
2019-01-23T01:19:23.291Z,0.70
2019-01-23T01:21:57.330Z,0.70
2019-01-23T01:24:30.488Z,0.70
2019-01-23T01:27:02.530Z,0.70
2019-01-23T01:29:34.608Z,0.70
2019-01-23T01:32:07.557Z,0.70
2019-01-23T01:34:40.856Z,0.60
2019-01-23T01:37:12.567Z,0.60
2019-01-23T01:39:44.059Z,0.60
2019-01-23T01:42:17.665Z,0.60
2019-01-23T01:44:49.201Z,0.60
2019-01-23T01:47:22.151Z,0.50
2019-01-23T01:49:57.121Z,0.60
2019-01-23T01:52:29.481Z,0.50
2019-01-23T01:55:01.072Z,0.50
2019-01-23T01:57:33.771Z,0.50
2019-01-23T02:00:09.109Z,0.50
2019-01-23T02:02:40.628Z,0.50
2019-01-23T02:05:12.449Z,0.50
2019-01-23T02:07:43.885Z,0.50
2019-01-23T02:10:17.411Z,0.40
2019-01-23T02:12:49.666Z,0.50
2019-01-23T02:15:21.377Z,0.40
2019-01-23T02:17:52.795Z,0.40
2019-01-23T02:20:26.520Z,0.40
2019-01-23T02:23:00.149Z,0.40
2019-01-23T02:25:31.679Z,0.30
2019-01-23T02:28:04.393Z,0.30
2019-01-23T02:30:36.495Z,0.30
2019-01-23T02:33:09.889Z,0.30
2019-01-23T02:35:41.556Z,0.30
2019-01-23T02:38:13.721Z,0.30
2019-01-23T02:40:46.018Z,0.30
2019-01-23T02:43:17.654Z,0.30
2019-01-23T02:45:49.303Z,0.20
2019-01-23T02:48:21.023Z,0.20
2019-01-23T02:50:52.698Z,0.20
2019-01-23T02:53:24.751Z,0.20
2019-01-23T02:55:56.594Z,0.20
2019-01-23T02:58:27.993Z,0.20
2019-01-23T03:01:00.546Z,0.20
2019-01-23T03:03:32.062Z,0.20
2019-01-23T03:06:05.753Z,0.20
2019-01-23T03:08:39.145Z,0.20
2019-01-23T03:11:10.823Z,0.20
2019-01-23T03:13:43.276Z,0.20
2019-01-23T03:16:14.957Z,0.20
2019-01-23T03:18:46.808Z,0.20
2019-01-23T03:21:18.195Z,0.20
2019-01-23T03:23:52.232Z,0.20
2019-01-23T03:26:25.636Z,0.20
2019-01-23T03:28:57.544Z,0.20
2019-01-23T03:31:29.206Z,0.20
2019-01-23T03:34:00.669Z,0.10
2019-01-23T03:36:32.704Z,0.10
2019-01-23T03:39:05.995Z,0.10
2019-01-23T03:41:37.883Z,0.10
2019-01-23T03:44:10.009Z,0.10
2019-01-23T03:46:41.655Z,0.10
2019-01-23T03:49:13.549Z,0.10
2019-01-23T03:51:44.908Z,0.10
2019-01-23T03:54:16.680Z,0.10
2019-01-23T03:56:48.473Z,0.10
2019-01-23T03:59:20.373Z,0.10
2019-01-23T04:01:54.767Z,0.10
2019-01-23T04:04:26.871Z,0.10
2019-01-23T04:06:59.234Z,0.10
2019-01-23T04:09:31.813Z,0.10
2019-01-23T04:12:06.810Z,0.10
2019-01-23T04:14:38.902Z,0.10
2019-01-23T04:17:13.108Z,0.10
2019-01-23T04:19:47.304Z,0.10
2019-01-23T04:22:19.079Z,0.10
2019-01-23T04:24:51.565Z,0.10
2019-01-23T04:27:24.199Z,0.10
2019-01-23T04:29:55.896Z,0.10
2019-01-23T04:32:27.272Z,0.10
2019-01-23T04:34:58.864Z,0.00
2019-01-23T04:37:30.318Z,0.10
2019-01-23T04:40:01.889Z,0.10
2019-01-23T04:42:33.320Z,0.10
2019-01-23T04:45:06.124Z,0.10
2019-01-23T04:47:37.647Z,0.10
2019-01-23T04:50:10.979Z,0.10
2019-01-23T04:52:50.353Z,0.10
2019-01-23T04:55:22.117Z,0.10
2019-01-23T04:57:55.006Z,0.10
2019-01-23T05:00:28.096Z,0.10
2019-01-23T05:02:59.555Z,0.20
2019-01-23T05:05:31.063Z,0.10
2019-01-23T05:08:02.809Z,0.10
2019-01-23T05:10:34.530Z,0.10
2019-01-23T05:13:08.930Z,0.10
2019-01-23T05:15:42.561Z,0.10
2019-01-23T05:18:14.235Z,0.20
2019-01-23T05:20:45.622Z,0.20
2019-01-23T05:23:17.871Z,0.20
2019-01-23T05:25:52.510Z,0.20
2019-01-23T05:28:24.196Z,0.20
2019-01-23T05:30:55.546Z,0.20
2019-01-23T05:33:27.366Z,0.20
2019-01-23T05:35:58.765Z,0.20
2019-01-23T05:38:30.249Z,0.20
2019-01-23T05:41:02.011Z,0.20
2019-01-23T05:43:34.979Z,0.20
2019-01-23T05:46:06.873Z,0.20
2019-01-23T05:48:38.613Z,0.20
2019-01-23T05:51:10.263Z,0.10
2019-01-23T05:53:42.059Z,0.10
2019-01-23T05:56:13.475Z,0.10
2019-01-23T05:58:45.043Z,0.00
2019-01-23T06:01:17.161Z,0.00
2019-01-23T06:03:48.896Z,0.00
2019-01-23T06:06:21.535Z,0.00
2019-01-23T06:08:53.409Z,-0.10
2019-01-23T06:11:24.847Z,-0.10
2019-01-23T06:13:58.476Z,-0.20
2019-01-23T06:16:29.871Z,-0.20
2019-01-23T06:19:01.786Z,-0.30
2019-01-23T06:21:34.269Z,-0.30
2019-01-23T06:24:06.464Z,-0.30
2019-01-23T06:26:37.860Z,-0.40
2019-01-23T06:29:10.099Z,-0.40
2019-01-23T06:31:42.015Z,-0.40
2019-01-23T06:34:15.156Z,-0.40
2019-01-23T06:36:46.875Z,-0.40
2019-01-23T06:39:18.771Z,-0.40
2019-01-23T06:41:50.195Z,-0.40
2019-01-23T06:44:22.169Z,-0.40
2019-01-23T06:46:53.524Z,-0.40
2019-01-23T06:49:26.083Z,-0.40
2019-01-23T06:51:57.584Z,-0.40
2019-01-23T06:54:29.427Z,-0.40
2019-01-23T06:57:01.053Z,-0.40
2019-01-23T06:59:32.543Z,-0.40
2019-01-23T07:02:04.209Z,-0.40
2019-01-23T07:04:39.355Z,-0.40
2019-01-23T07:07:11.289Z,-0.40
2019-01-23T07:09:43.281Z,-0.40
2019-01-23T07:12:15.197Z,-0.40
2019-01-23T07:14:47.087Z,-0.40
2019-01-23T07:17:18.978Z,-0.40
2019-01-23T07:19:50.947Z,-0.40
2019-01-23T07:22:22.746Z,-0.40
2019-01-23T07:24:55.105Z,-0.40
2019-01-23T07:27:27.264Z,-0.40
2019-01-23T07:29:59.286Z,-0.40
2019-01-23T07:32:36.518Z,-0.40
2019-01-23T07:35:09.917Z,-0.40
2019-01-23T07:37:41.793Z,-0.50
2019-01-23T07:40:13.658Z,-0.50
2019-01-23T07:42:45.402Z,-0.50
2019-01-23T07:45:17.912Z,-0.50
2019-01-23T07:47:49.809Z,-0.50
2019-01-23T07:50:21.458Z,-0.50
2019-01-23T07:52:55.090Z,-0.40
2019-01-23T07:55:27.072Z,-0.40
2019-01-23T07:57:59.002Z,-0.40
2019-01-23T08:00:31.699Z,-0.40
2019-01-23T08:03:03.550Z,-0.40
2019-01-23T08:05:36.559Z,-0.40
2019-01-23T08:08:08.447Z,-0.40
2019-01-23T08:10:40.470Z,-0.40
2019-01-23T08:13:13.427Z,-0.30
2019-01-23T08:15:46.629Z,-0.30
2019-01-23T08:18:18.849Z,-0.30
2019-01-23T08:20:50.826Z,-0.30
2019-01-23T08:23:22.458Z,-0.20
2019-01-23T08:25:54.445Z,-0.20
2019-01-23T08:28:26.473Z,-0.10
2019-01-23T08:30:58.037Z,-0.10
2019-01-23T08:33:29.798Z,0.00
2019-01-23T08:36:02.562Z,0.10
2019-01-23T08:38:34.483Z,0.30
2019-01-23T08:41:06.078Z,0.50
2019-01-23T08:43:38.964Z,0.40
2019-01-23T08:46:10.669Z,0.50
2019-01-23T08:48:45.605Z,0.50
2019-01-23T08:51:17.931Z,0.50
2019-01-23T08:53:49.483Z,0.50
2019-01-23T08:56:20.931Z,0.50
2019-01-23T08:58:54.639Z,0.60
2019-01-23T09:01:26.731Z,0.50
2019-01-23T09:03:59.493Z,0.60
2019-01-23T09:06:31.185Z,0.70
2019-01-23T09:09:05.433Z,0.70
2019-01-23T09:11:37.417Z,0.80
2019-01-23T09:14:09.815Z,0.90
2019-01-23T09:16:41.447Z,1.00
2019-01-23T09:19:13.363Z,1.10
2019-01-23T09:21:46.357Z,1.20
2019-01-23T09:24:19.129Z,1.20
2019-01-23T09:26:52.215Z,1.00
2019-01-23T09:29:23.919Z,1.10
2019-01-23T09:32:18.216Z,1.10
2019-01-23T09:35:15.953Z,1.10
2019-01-23T09:38:11.820Z,0.90
2019-01-23T09:40:50.815Z,0.90
2019-01-23T09:44:04.688Z,1.00
2019-01-23T09:47:18.563Z,1.10
2019-01-23T09:50:18.954Z,1.20
2019-01-23T09:53:04.315Z,1.30
2019-01-23T09:55:37.327Z,1.20
2019-01-23T09:58:10.498Z,1.20
2019-01-23T10:00:42.308Z,1.20
2019-01-23T10:03:15.284Z,1.20
2019-01-23T10:05:46.792Z,1.20
2019-01-23T10:08:18.326Z,1.30
2019-01-23T10:10:49.753Z,1.50
2019-01-23T10:13:22.514Z,1.60
2019-01-23T10:16:05.432Z,1.60
2019-01-23T10:18:37.506Z,1.50
2019-01-23T10:21:09.103Z,1.50
2019-01-23T10:23:40.569Z,1.40
2019-01-23T10:26:12.016Z,1.30
2019-01-23T10:28:43.869Z,1.30
2019-01-23T10:31:15.837Z,1.30
2019-01-23T10:33:47.283Z,1.20
2019-01-23T10:36:20.143Z,1.20
2019-01-23T10:38:51.488Z,1.10
2019-01-23T10:41:23.075Z,1.10
2019-01-23T10:43:54.887Z,0.90
2019-01-23T10:46:26.279Z,0.90
2019-01-23T10:48:58.039Z,0.80
2019-01-23T10:51:29.643Z,0.80
2019-01-23T10:54:01.301Z,0.70
2019-01-23T10:56:33.092Z,0.70
2019-01-23T10:59:04.673Z,0.60
2019-01-23T11:01:36.002Z,0.60
2019-01-23T11:04:07.443Z,0.60
2019-01-23T11:06:39.341Z,0.60
2019-01-23T11:09:11.111Z,0.60
2019-01-23T11:11:42.703Z,0.60
2019-01-23T11:14:14.447Z,0.50
2019-01-23T11:16:46.063Z,0.50
2019-01-23T11:19:17.569Z,0.40
2019-01-23T11:21:49.573Z,0.40
2019-01-23T11:24:22.023Z,0.40
2019-01-23T11:26:54.368Z,0.40
2019-01-23T11:29:26.044Z,0.40
2019-01-23T11:31:58.059Z,0.40
2019-01-23T11:34:30.933Z,0.50
2019-01-23T11:37:03.253Z,0.50
2019-01-23T11:39:34.741Z,0.60
2019-01-23T11:42:06.887Z,0.50
2019-01-23T11:44:38.721Z,0.60
2019-01-23T11:47:10.320Z,0.60
2019-01-23T11:49:41.932Z,0.60
2019-01-23T11:52:13.556Z,0.50
2019-01-23T11:54:45.160Z,0.50
2019-01-23T11:57:17.748Z,0.70
2019-01-23T11:59:49.593Z,0.80
2019-01-23T12:02:21.710Z,0.90
2019-01-23T12:04:54.716Z,0.90
2019-01-23T12:07:26.708Z,1.10
2019-01-23T12:09:58.330Z,1.20
2019-01-23T12:12:31.089Z,1.30
2019-01-23T12:15:03.060Z,1.40
2019-01-23T12:17:35.224Z,1.60
2019-01-23T12:20:07.288Z,1.60
2019-01-23T12:22:40.634Z,1.70
2019-01-23T12:25:12.655Z,1.80
2019-01-23T12:27:44.919Z,1.90
2019-01-23T12:30:32.427Z,1.90
2019-01-23T12:33:04.296Z,1.80
2019-01-23T12:35:35.768Z,1.90
2019-01-23T12:38:08.251Z,1.90
2019-01-23T12:40:40.611Z,1.90
2019-01-23T12:43:12.398Z,1.80
2019-01-23T12:45:44.298Z,1.90
2019-01-23T12:48:15.790Z,2.10
2019-01-23T12:50:47.495Z,2.10
2019-01-23T12:53:19.414Z,2.00
2019-01-23T12:55:51.485Z,1.80
2019-01-23T12:58:22.952Z,1.70
2019-01-23T13:00:55.668Z,1.70
2019-01-23T13:03:29.418Z,1.70
2019-01-23T13:06:01.282Z,1.80
2019-01-23T13:08:33.000Z,1.70
2019-01-23T13:11:04.351Z,1.70
2019-01-23T13:13:35.979Z,1.40
2019-01-23T13:16:07.728Z,1.30
2019-01-23T13:18:39.476Z,1.30
2019-01-23T13:21:11.143Z,1.30
2019-01-23T13:23:42.808Z,1.20
2019-01-23T13:26:14.537Z,1.20
2019-01-23T13:28:46.169Z,1.20
2019-01-23T13:31:17.903Z,1.30
2019-01-23T13:33:50.363Z,1.20
2019-01-23T13:36:21.881Z,1.10
2019-01-23T13:38:54.145Z,1.20
2019-01-23T13:41:28.444Z,1.10
2019-01-23T13:44:00.481Z,1.20
2019-01-23T13:46:32.681Z,1.00
2019-01-23T13:49:04.792Z,1.10
2019-01-23T13:51:38.201Z,1.20
2019-01-23T13:54:12.287Z,1.30
2019-01-23T13:56:45.588Z,1.40
2019-01-23T13:59:17.109Z,1.50
2019-01-23T14:01:56.156Z,1.40
2019-01-23T14:04:25.331Z,1.30
2019-01-23T14:06:56.841Z,1.30
2019-01-23T14:09:29.569Z,1.20
2019-01-23T14:12:01.607Z,1.10
2019-01-23T14:14:33.315Z,1.10
2019-01-23T14:17:05.877Z,1.00
2019-01-23T14:19:38.692Z,1.00
2019-01-23T14:22:10.221Z,1.00
2019-01-23T14:24:44.301Z,1.00
2019-01-23T14:27:16.962Z,1.00
2019-01-23T14:29:49.885Z,1.00
2019-01-23T14:32:22.019Z,1.00
2019-01-23T14:34:54.325Z,0.90
2019-01-23T14:37:27.851Z,1.00
2019-01-23T14:39:59.283Z,0.90
2019-01-23T14:42:31.258Z,0.80
2019-01-23T14:45:04.797Z,0.90
2019-01-23T14:47:36.709Z,0.90
2019-01-23T14:50:10.519Z,0.80
2019-01-23T14:52:44.056Z,0.80
2019-01-23T14:55:16.055Z,0.80
2019-01-23T14:57:48.035Z,0.80
2019-01-23T15:00:21.889Z,0.70
2019-01-23T15:02:53.799Z,0.70
2019-01-23T15:05:25.823Z,0.70
2019-01-23T15:07:57.617Z,0.70
2019-01-23T15:10:31.133Z,0.80
2019-01-23T15:13:03.860Z,0.80
2019-01-23T15:15:35.857Z,0.70
2019-01-23T15:18:07.999Z,0.80
2019-01-23T15:20:41.350Z,0.80
2019-01-23T15:23:13.139Z,0.80
2019-01-23T15:25:46.353Z,0.80
2019-01-23T15:28:18.078Z,0.80
2019-01-23T15:30:51.534Z,0.90
2019-01-23T15:33:23.802Z,0.70
2019-01-23T15:35:55.785Z,0.70
2019-01-23T15:38:27.868Z,0.70
2019-01-23T15:40:59.611Z,0.70
2019-01-23T15:43:31.208Z,0.60
2019-01-23T15:46:02.979Z,0.50
2019-01-23T15:48:34.718Z,0.40
2019-01-23T15:51:06.535Z,0.30
2019-01-23T15:53:39.599Z,0.10
2019-01-23T15:56:11.215Z,0.00
2019-01-23T15:58:43.055Z,-0.10
2019-01-23T16:01:14.916Z,-0.20
2019-01-23T16:03:47.116Z,-0.30
2019-01-23T16:06:19.635Z,-0.40
2019-01-23T16:08:51.032Z,-0.40
2019-01-23T16:11:25.550Z,-0.40
2019-01-23T16:13:57.117Z,-0.50
2019-01-23T16:16:28.625Z,-0.50
2019-01-23T16:19:00.518Z,-0.50
2019-01-23T16:21:32.171Z,-0.50
2019-01-23T16:24:04.757Z,-0.50
2019-01-23T16:26:36.841Z,-0.50
2019-01-23T16:29:10.369Z,-0.50
2019-01-23T16:31:42.156Z,-0.50
2019-01-23T16:34:13.804Z,-0.40
2019-01-23T16:36:45.609Z,-0.40
2019-01-23T16:39:17.643Z,-0.30
2019-01-23T16:41:50.512Z,-0.30
2019-01-23T16:44:22.184Z,-0.30
2019-01-23T16:46:53.699Z,-0.30
2019-01-23T16:49:25.602Z,-0.20
2019-01-23T16:51:57.348Z,-0.10
2019-01-23T16:54:28.971Z,-0.10
2019-01-23T16:57:00.658Z,0.00
2019-01-23T16:59:32.487Z,0.10
2019-01-23T17:02:04.033Z,0.10
2019-01-23T17:04:35.929Z,0.10
2019-01-23T17:07:07.686Z,0.10
2019-01-23T17:09:39.913Z,0.10
2019-01-23T17:12:11.345Z,0.20
2019-01-23T17:14:43.840Z,0.20
2019-01-23T17:17:15.433Z,0.20
2019-01-23T17:19:47.334Z,0.20
2019-01-23T17:22:19.156Z,0.20
2019-01-23T17:24:50.819Z,0.20
2019-01-23T17:27:23.254Z,0.20
2019-01-23T17:29:55.007Z,0.20
2019-01-23T17:32:26.898Z,0.30
2019-01-23T17:34:59.430Z,0.30
2019-01-23T17:37:31.725Z,0.40
2019-01-23T17:40:04.401Z,0.40
2019-01-23T17:42:38.406Z,0.40
2019-01-23T17:45:16.635Z,0.40
2019-01-23T17:47:48.432Z,0.30
2019-01-23T17:50:21.090Z,0.30
2019-01-23T17:52:53.100Z,0.30
2019-01-23T17:55:30.834Z,0.30
2019-01-23T17:58:02.578Z,0.20
2019-01-23T18:00:37.450Z,0.30
2019-01-23T18:03:09.231Z,0.30
2019-01-23T18:05:41.283Z,0.30
2019-01-23T18:08:13.064Z,0.30
2019-01-23T18:10:44.473Z,0.30
2019-01-23T18:13:17.298Z,0.30
2019-01-23T18:15:48.848Z,0.30
2019-01-23T18:18:20.297Z,0.20
2019-01-23T18:20:51.707Z,0.20
2019-01-23T18:23:24.290Z,0.30
2019-01-23T18:25:56.878Z,0.20
2019-01-23T18:28:28.440Z,0.20
2019-01-23T18:31:16.420Z,0.20
2019-01-23T18:34:33.689Z,0.20
2019-01-23T18:37:19.420Z,0.20
2019-01-23T18:40:20.201Z,0.20
2019-01-23T18:43:24.067Z,0.20
2019-01-23T18:46:42.547Z,0.20
2019-01-23T18:49:32.450Z,0.10
2019-01-23T18:52:12.304Z,0.20
2019-01-23T18:54:44.243Z,0.20
2019-01-23T18:57:19.137Z,0.20
2019-01-23T18:59:50.671Z,0.20
2019-01-23T19:02:22.287Z,0.10
2019-01-23T19:04:54.265Z,0.20
2019-01-23T19:07:27.450Z,0.20
2019-01-23T19:10:00.359Z,0.20
2019-01-23T19:12:32.901Z,0.20
2019-01-23T19:15:06.367Z,0.20
2019-01-23T19:17:39.091Z,0.20
2019-01-23T19:20:15.266Z,0.20
2019-01-23T19:22:48.698Z,0.20
2019-01-23T19:25:23.377Z,0.20
2019-01-23T19:27:54.994Z,0.20
2019-01-23T19:30:26.783Z,0.20
2019-01-23T19:32:59.030Z,0.20
2019-01-23T19:35:30.815Z,0.20
2019-01-23T19:38:03.641Z,0.20
2019-01-23T19:40:35.237Z,0.20
2019-01-23T19:43:07.022Z,0.30
2019-01-23T19:45:42.157Z,0.30
2019-01-23T19:48:13.830Z,0.30
2019-01-23T19:50:45.428Z,0.30
2019-01-23T19:53:16.879Z,0.30
2019-01-23T19:55:49.403Z,0.20
2019-01-23T19:58:22.431Z,0.20
2019-01-23T20:00:54.401Z,0.20
2019-01-23T20:03:28.771Z,0.30
2019-01-23T20:06:00.836Z,0.30
2019-01-23T20:08:32.469Z,0.30
2019-01-23T20:11:03.863Z,0.30
2019-01-23T20:13:36.732Z,0.30
2019-01-23T20:16:08.496Z,0.30
2019-01-23T20:18:39.903Z,0.30
2019-01-23T20:21:13.525Z,0.30
2019-01-23T20:23:45.440Z,0.30
2019-01-23T20:26:17.066Z,0.30
2019-01-23T20:28:48.978Z,0.30
2019-01-23T20:31:21.474Z,0.30
2019-01-23T20:33:54.466Z,0.30
2019-01-23T20:36:27.209Z,0.30
2019-01-23T20:39:00.247Z,0.40
2019-01-23T20:41:33.574Z,0.30
2019-01-23T20:44:05.417Z,0.40
2019-01-23T20:46:38.409Z,0.30
2019-01-23T20:49:11.741Z,0.30
2019-01-23T20:51:43.366Z,0.30
2019-01-23T20:54:15.187Z,0.30
2019-01-23T20:56:47.488Z,0.30
2019-01-23T20:59:19.144Z,0.30
2019-01-23T21:01:51.032Z,0.30
2019-01-23T21:04:22.590Z,0.30
2019-01-23T21:06:55.629Z,0.30
2019-01-23T21:09:27.044Z,0.30
2019-01-23T21:11:59.120Z,0.30
2019-01-23T21:14:32.086Z,0.30
2019-01-23T21:17:04.080Z,0.30
2019-01-23T21:19:40.891Z,0.20
2019-01-23T21:22:13.224Z,0.20
2019-01-23T21:24:44.582Z,0.20
2019-01-23T21:27:16.704Z,0.20
2019-01-23T21:29:48.622Z,0.20
2019-01-23T21:32:21.334Z,0.20
2019-01-23T21:34:52.925Z,0.20
2019-01-23T21:37:26.062Z,0.20
2019-01-23T21:39:58.035Z,0.10
2019-01-23T21:42:30.787Z,0.10
2019-01-23T21:45:02.680Z,0.10
2019-01-23T21:47:34.654Z,0.10
2019-01-23T21:50:08.695Z,0.10
2019-01-23T21:52:40.269Z,0.10
2019-01-23T21:55:14.199Z,0.10
2019-01-23T21:57:46.364Z,0.10
2019-01-23T22:00:21.065Z,0.20
2019-01-23T22:02:53.371Z,0.10
2019-01-23T22:05:25.124Z,0.10
2019-01-23T22:07:58.172Z,0.10
2019-01-23T22:10:29.779Z,0.10
2019-01-23T22:13:02.367Z,0.20
2019-01-23T22:15:34.406Z,0.20
2019-01-23T22:18:07.919Z,0.20
2019-01-23T22:20:39.697Z,0.20
2019-01-23T22:23:12.551Z,0.20
2019-01-23T22:25:44.159Z,0.20
2019-01-23T22:28:15.654Z,0.20
2019-01-23T22:30:48.910Z,0.20
2019-01-23T22:33:20.582Z,0.20
2019-01-23T22:35:52.500Z,0.20
2019-01-23T22:38:24.704Z,0.20
2019-01-23T22:40:56.505Z,0.20
2019-01-23T22:43:28.297Z,0.20
2019-01-23T22:45:59.997Z,0.20
2019-01-23T22:48:31.533Z,0.20
2019-01-23T22:51:03.530Z,0.20
2019-01-23T22:53:37.442Z,0.20
2019-01-23T22:56:09.066Z,0.20
2019-01-23T22:58:41.668Z,0.20
2019-01-23T23:01:32.362Z,0.20
2019-01-23T23:04:05.264Z,0.20
2019-01-23T23:06:37.826Z,0.20
2019-01-23T23:09:11.066Z,0.20
2019-01-23T23:11:44.170Z,0.20
2019-01-23T23:14:16.936Z,0.20
2019-01-23T23:16:48.602Z,0.20
2019-01-23T23:19:22.076Z,0.20
2019-01-23T23:21:54.316Z,0.20
2019-01-23T23:24:27.020Z,0.20
2019-01-23T23:26:58.688Z,0.20
2019-01-23T23:29:30.527Z,0.20
2019-01-23T23:32:01.927Z,0.20
2019-01-23T23:34:36.623Z,0.20
2019-01-23T23:37:08.526Z,0.20
2019-01-23T23:39:40.110Z,0.20
2019-01-23T23:42:12.772Z,0.20
2019-01-23T23:44:44.180Z,0.20
2019-01-23T23:47:16.292Z,0.20
2019-01-23T23:49:48.559Z,0.20
2019-01-23T23:52:21.155Z,0.20
2019-01-23T23:54:52.601Z,0.20
2019-01-23T23:57:25.915Z,0.20
2019-01-23T23:59:57.523Z,0.20
